sensor_id;sensor_type;location;lat;lon;timestamp;pressure;altitude;pressure_sealevel;temperature;humidity
21988;BME280;11158;53.404;-1.510;2024-01-25T00:01:14;101858.59;;;5.09;80.94
21988;BME280;11158;53.404;-1.510;2024-01-25T00:03:40;101865.56;;;4.93;80.70
21988;BME280;11158;53.404;-1.510;2024-01-25T00:06:06;101873.44;;;4.82;81.68
21988;BME280;11158;53.404;-1.510;2024-01-25T00:08:32;101876.13;;;4.88;81.64
21988;BME280;11158;53.404;-1.510;2024-01-25T00:10:57;101887.56;;;4.89;81.30
21988;BME280;11158;53.404;-1.510;2024-01-25T00:13:23;101902.38;;;4.68;81.76
21988;BME280;11158;53.404;-1.510;2024-01-25T00:15:48;101897.09;;;4.64;81.95
21988;BME280;11158;53.404;-1.510;2024-01-25T00:18:13;101885.63;;;4.60;82.93
21988;BME280;11158;53.404;-1.510;2024-01-25T00:20:39;101873.44;;;4.85;82.16
21988;BME280;11158;53.404;-1.510;2024-01-25T00:23:04;101856.75;;;4.93;81.47
21988;BME280;11158;53.404;-1.510;2024-01-25T00:25:30;101849.78;;;5.01;81.47
21988;BME280;11158;53.404;-1.510;2024-01-25T00:27:55;101863.88;;;5.09;80.87
21988;BME280;11158;53.404;-1.510;2024-01-25T00:30:21;101873.53;;;5.04;81.37
21988;BME280;11158;53.404;-1.510;2024-01-25T00:32:47;101871.78;;;5.00;81.41
21988;BME280;11158;53.404;-1.510;2024-01-25T00:35:14;101875.28;;;5.00;81.77
21988;BME280;11158;53.404;-1.510;2024-01-25T00:37:40;101869.88;;;4.76;82.18
21988;BME280;11158;53.404;-1.510;2024-01-25T00:40:06;101856.72;;;4.82;82.81
21988;BME280;11158;53.404;-1.510;2024-01-25T00:42:42;101850.50;;;4.80;82.81
21988;BME280;11158;53.404;-1.510;2024-01-25T00:45:09;101832.09;;;4.86;82.41
21988;BME280;11158;53.404;-1.510;2024-01-25T00:47:35;101828.47;;;4.70;82.31
21988;BME280;11158;53.404;-1.510;2024-01-25T00:50:00;101831.03;;;4.56;82.90
21988;BME280;11158;53.404;-1.510;2024-01-25T00:52:26;101835.44;;;4.57;82.21
21988;BME280;11158;53.404;-1.510;2024-01-25T00:54:51;101836.34;;;4.64;82.83
21988;BME280;11158;53.404;-1.510;2024-01-25T00:57:17;101844.34;;;4.73;83.14
21988;BME280;11158;53.404;-1.510;2024-01-25T00:59:43;101847.94;;;4.91;82.28
21988;BME280;11158;53.404;-1.510;2024-01-25T01:02:11;101843.53;;;4.88;82.31
21988;BME280;11158;53.404;-1.510;2024-01-25T01:04:38;101837.28;;;4.74;82.78
21988;BME280;11158;53.404;-1.510;2024-01-25T01:07:04;101824.91;;;4.66;83.15
21988;BME280;11158;53.404;-1.510;2024-01-25T01:09:30;101814.31;;;4.60;82.35
21988;BME280;11158;53.404;-1.510;2024-01-25T01:11:55;101809.03;;;4.59;82.62
21988;BME280;11158;53.404;-1.510;2024-01-25T01:14:21;101791.34;;;4.44;82.53
21988;BME280;11158;53.404;-1.510;2024-01-25T01:16:46;101798.41;;;4.45;83.17
21988;BME280;11158;53.404;-1.510;2024-01-25T01:19:12;101811.59;;;4.45;83.23
21988;BME280;11158;53.404;-1.510;2024-01-25T01:21:38;101800.25;;;4.60;83.33
21988;BME280;11158;53.404;-1.510;2024-01-25T01:24:04;101821.16;;;4.30;83.28
21988;BME280;11158;53.404;-1.510;2024-01-25T01:26:29;101828.25;;;4.35;83.98
21988;BME280;11158;53.404;-1.510;2024-01-25T01:28:55;101823.91;;;4.43;83.64
21988;BME280;11158;53.404;-1.510;2024-01-25T01:31:20;101822.19;;;4.48;84.30
21988;BME280;11158;53.404;-1.510;2024-01-25T01:33:46;101816.91;;;4.53;83.83
21988;BME280;11158;53.404;-1.510;2024-01-25T01:36:11;101802.84;;;4.55;83.04
21988;BME280;11158;53.404;-1.510;2024-01-25T01:38:37;101786.13;;;4.52;82.63
21988;BME280;11158;53.404;-1.510;2024-01-25T01:41:02;101784.31;;;4.44;83.13
21988;BME280;11158;53.404;-1.510;2024-01-25T01:43:28;101791.34;;;4.45;83.10
21988;BME280;11158;53.404;-1.510;2024-01-25T01:45:53;101778.16;;;4.45;83.43
21988;BME280;11158;53.404;-1.510;2024-01-25T01:48:21;101780.03;;;4.66;84.04
21988;BME280;11158;53.404;-1.510;2024-01-25T01:50:46;101795.91;;;4.69;83.25
21988;BME280;11158;53.404;-1.510;2024-01-25T01:53:12;101793.25;;;4.68;82.38
21988;BME280;11158;53.404;-1.510;2024-01-25T01:55:39;101799.41;;;4.68;82.82
21988;BME280;11158;53.404;-1.510;2024-01-25T01:58:07;101795.88;;;4.66;83.21
21988;BME280;11158;53.404;-1.510;2024-01-25T02:00:33;101780.97;;;4.81;83.92
21988;BME280;11158;53.404;-1.510;2024-01-25T02:02:59;101773.06;;;4.82;83.45
21988;BME280;11158;53.404;-1.510;2024-01-25T02:05:24;101757.25;;;4.88;83.34
21988;BME280;11158;53.404;-1.510;2024-01-25T02:07:50;101755.44;;;4.75;83.11
21988;BME280;11158;53.404;-1.510;2024-01-25T02:10:17;101743.09;;;4.76;83.04
21988;BME280;11158;53.404;-1.510;2024-01-25T02:12:42;101739.56;;;4.80;83.54
21988;BME280;11158;53.404;-1.510;2024-01-25T02:15:08;101736.97;;;4.91;83.58
21988;BME280;11158;53.404;-1.510;2024-01-25T02:17:33;101739.63;;;4.86;83.58
21988;BME280;11158;53.404;-1.510;2024-01-25T02:19:59;101751.06;;;4.82;83.96
21988;BME280;11158;53.404;-1.510;2024-01-25T02:22:25;101750.16;;;4.87;83.72
21988;BME280;11158;53.404;-1.510;2024-01-25T02:24:51;101756.38;;;4.93;83.43
21988;BME280;11158;53.404;-1.510;2024-01-25T02:27:16;101759.00;;;4.82;83.85
21988;BME280;11158;53.404;-1.510;2024-01-25T02:29:42;101766.94;;;4.93;83.90
21988;BME280;11158;53.404;-1.510;2024-01-25T02:32:07;101768.69;;;4.86;83.24
21988;BME280;11158;53.404;-1.510;2024-01-25T02:34:32;101762.50;;;4.82;83.70
21988;BME280;11158;53.404;-1.510;2024-01-25T02:36:58;101761.63;;;4.80;83.95
21988;BME280;11158;53.404;-1.510;2024-01-25T02:39:23;101755.44;;;4.83;84.82
21988;BME280;11158;53.404;-1.510;2024-01-25T02:41:48;101754.59;;;4.87;84.43
21988;BME280;11158;53.404;-1.510;2024-01-25T02:44:14;101766.88;;;4.79;84.15
21988;BME280;11158;53.404;-1.510;2024-01-25T02:46:39;101773.03;;;4.75;84.22
21988;BME280;11158;53.404;-1.510;2024-01-25T02:49:04;101765.06;;;4.70;85.04
21988;BME280;11158;53.404;-1.510;2024-01-25T02:51:30;101748.34;;;4.63;84.75
21988;BME280;11158;53.404;-1.510;2024-01-25T02:53:55;101739.50;;;4.54;84.83
21988;BME280;11158;53.404;-1.510;2024-01-25T02:56:20;101736.84;;;4.52;84.77
21988;BME280;11158;53.404;-1.510;2024-01-25T02:58:46;101732.56;;;4.80;85.08
21988;BME280;11158;53.404;-1.510;2024-01-25T03:01:11;101726.41;;;4.78;84.23
21988;BME280;11158;53.404;-1.510;2024-01-25T03:03:37;101729.00;;;4.80;84.87
21988;BME280;11158;53.404;-1.510;2024-01-25T03:06:05;101727.25;;;4.71;85.09
21988;BME280;11158;53.404;-1.510;2024-01-25T03:08:31;101715.75;;;4.60;84.87
21988;BME280;11158;53.404;-1.510;2024-01-25T03:10:56;101702.63;;;4.83;84.94
21988;BME280;11158;53.404;-1.510;2024-01-25T03:13:22;101698.28;;;4.97;84.75
21988;BME280;11158;53.404;-1.510;2024-01-25T03:15:47;101697.34;;;4.91;84.73
21988;BME280;11158;53.404;-1.510;2024-01-25T03:18:12;101697.34;;;4.77;84.61
21988;BME280;11158;53.404;-1.510;2024-01-25T03:20:38;101690.25;;;4.65;84.61
21988;BME280;11158;53.404;-1.510;2024-01-25T03:23:04;101695.50;;;4.60;85.65
21988;BME280;11158;53.404;-1.510;2024-01-25T03:25:29;101688.44;;;4.55;85.38
21988;BME280;11158;53.404;-1.510;2024-01-25T03:27:55;101689.31;;;4.55;86.61
21988;BME280;11158;53.404;-1.510;2024-01-25T03:30:21;101684.06;;;4.58;86.67
21988;BME280;11158;53.404;-1.510;2024-01-25T03:32:46;101674.38;;;4.59;86.60
21988;BME280;11158;53.404;-1.510;2024-01-25T03:35:12;101674.38;;;4.57;85.97
21988;BME280;11158;53.404;-1.510;2024-01-25T03:37:37;101674.41;;;4.62;85.54
21988;BME280;11158;53.404;-1.510;2024-01-25T03:40:03;101676.09;;;4.47;86.01
21988;BME280;11158;53.404;-1.510;2024-01-25T03:42:30;101673.41;;;4.40;86.37
21988;BME280;11158;53.404;-1.510;2024-01-25T03:44:55;101678.69;;;4.40;86.88
21988;BME280;11158;53.404;-1.510;2024-01-25T03:47:21;101688.38;;;4.39;87.17
21988;BME280;11158;53.404;-1.510;2024-01-25T03:49:47;101689.28;;;4.44;87.28
21988;BME280;11158;53.404;-1.510;2024-01-25T03:52:13;101690.19;;;4.48;86.86
21988;BME280;11158;53.404;-1.510;2024-01-25T03:54:38;101676.09;;;4.49;86.63
21988;BME280;11158;53.404;-1.510;2024-01-25T03:57:04;101681.44;;;4.60;86.50
21988;BME280;11158;53.404;-1.510;2024-01-25T03:59:29;101667.34;;;4.61;85.98
21988;BME280;11158;53.404;-1.510;2024-01-25T04:01:54;101655.91;;;4.68;86.50
21988;BME280;11158;53.404;-1.510;2024-01-25T04:04:20;101650.66;;;4.73;86.67
21988;BME280;11158;53.404;-1.510;2024-01-25T04:06:45;101658.56;;;4.66;86.46
21988;BME280;11158;53.404;-1.510;2024-01-25T04:09:12;101649.78;;;4.71;86.96
21988;BME280;11158;53.404;-1.510;2024-01-25T04:11:37;101643.59;;;4.65;86.54
21988;BME280;11158;53.404;-1.510;2024-01-25T04:14:03;101648.84;;;4.62;86.33
21988;BME280;11158;53.404;-1.510;2024-01-25T04:16:29;101641.81;;;4.64;86.98
21988;BME280;11158;53.404;-1.510;2024-01-25T04:18:55;101640.94;;;4.58;86.29
21988;BME280;11158;53.404;-1.510;2024-01-25T04:21:20;101635.69;;;4.65;87.06
21988;BME280;11158;53.404;-1.510;2024-01-25T04:23:45;101626.00;;;4.74;87.31
21988;BME280;11158;53.404;-1.510;2024-01-25T04:26:11;101626.03;;;4.98;87.24
21988;BME280;11158;53.404;-1.510;2024-01-25T04:28:36;101621.63;;;5.06;87.30
21988;BME280;11158;53.404;-1.510;2024-01-25T04:31:02;101618.13;;;5.23;86.95
21988;BME280;11158;53.404;-1.510;2024-01-25T04:33:28;101617.25;;;5.15;86.85
21988;BME280;11158;53.404;-1.510;2024-01-25T04:35:54;101599.63;;;5.17;87.04
21988;BME280;11158;53.404;-1.510;2024-01-25T04:38:20;101591.69;;;5.23;86.81
21988;BME280;11158;53.404;-1.510;2024-01-25T04:40:45;101584.66;;;5.20;86.64
21988;BME280;11158;53.404;-1.510;2024-01-25T04:43:10;101590.84;;;5.07;85.94
21988;BME280;11158;53.404;-1.510;2024-01-25T04:45:36;101589.06;;;4.94;86.85
21988;BME280;11158;53.404;-1.510;2024-01-25T04:48:02;101589.94;;;4.79;86.84
21988;BME280;11158;53.404;-1.510;2024-01-25T04:50:27;101592.59;;;4.82;86.78
21988;BME280;11158;53.404;-1.510;2024-01-25T04:52:53;101583.75;;;4.87;86.86
21988;BME280;11158;53.404;-1.510;2024-01-25T04:55:18;101579.38;;;4.89;87.41
21988;BME280;11158;53.404;-1.510;2024-01-25T04:57:45;101594.31;;;4.89;86.95
21988;BME280;11158;53.404;-1.510;2024-01-25T05:00:11;101582.88;;;4.93;86.96
21988;BME280;11158;53.404;-1.510;2024-01-25T05:02:36;101580.25;;;4.96;87.30
21988;BME280;11158;53.404;-1.510;2024-01-25T05:05:01;101578.50;;;4.94;87.19
21988;BME280;11158;53.404;-1.510;2024-01-25T05:07:27;101583.75;;;4.97;86.97
21988;BME280;11158;53.404;-1.510;2024-01-25T05:09:52;101578.50;;;4.95;86.78
21988;BME280;11158;53.404;-1.510;2024-01-25T05:12:17;101577.59;;;4.96;86.51
21988;BME280;11158;53.404;-1.510;2024-01-25T05:14:43;101574.09;;;5.02;86.79
21988;BME280;11158;53.404;-1.510;2024-01-25T05:17:08;101574.97;;;4.99;87.19
21988;BME280;11158;53.404;-1.510;2024-01-25T05:19:34;101572.31;;;5.04;86.61
21988;BME280;11158;53.404;-1.510;2024-01-25T05:21:59;101568.81;;;5.09;86.17
21988;BME280;11158;53.404;-1.510;2024-01-25T05:24:25;101573.19;;;5.06;86.72
21988;BME280;11158;53.404;-1.510;2024-01-25T05:26:51;101564.38;;;5.02;86.32
21988;BME280;11158;53.404;-1.510;2024-01-25T05:29:16;101553.84;;;5.08;86.81
21988;BME280;11158;53.404;-1.510;2024-01-25T05:31:41;101550.31;;;5.09;87.08
21988;BME280;11158;53.404;-1.510;2024-01-25T05:34:07;101549.44;;;5.01;86.55
21988;BME280;11158;53.404;-1.510;2024-01-25T05:36:33;101541.50;;;4.98;87.37
21988;BME280;11158;53.404;-1.510;2024-01-25T05:38:58;101541.50;;;5.00;88.01
21988;BME280;11158;53.404;-1.510;2024-01-25T05:41:23;101538.84;;;5.04;87.36
21988;BME280;11158;53.404;-1.510;2024-01-25T05:43:48;101542.38;;;4.93;87.20
21988;BME280;11158;53.404;-1.510;2024-01-25T05:46:14;101532.72;;;4.92;87.93
21988;BME280;11158;53.404;-1.510;2024-01-25T05:48:39;101523.00;;;4.97;87.32
21988;BME280;11158;53.404;-1.510;2024-01-25T05:51:05;101527.41;;;4.87;87.19
21988;BME280;11158;53.404;-1.510;2024-01-25T05:53:30;101516.84;;;4.85;87.34
21988;BME280;11158;53.404;-1.510;2024-01-25T05:55:57;101517.72;;;4.91;87.49
21988;BME280;11158;53.404;-1.510;2024-01-25T05:58:22;101519.50;;;4.84;87.48
21988;BME280;11158;53.404;-1.510;2024-01-25T06:00:48;101516.88;;;4.84;87.88
21988;BME280;11158;53.404;-1.510;2024-01-25T06:03:13;101508.94;;;4.73;88.44
21988;BME280;11158;53.404;-1.510;2024-01-25T06:05:38;101524.75;;;4.85;88.09
21988;BME280;11158;53.404;-1.510;2024-01-25T06:08:04;101516.88;;;4.92;88.79
21988;BME280;11158;53.404;-1.510;2024-01-25T06:10:29;101508.94;;;4.98;88.25
21988;BME280;11158;53.404;-1.510;2024-01-25T06:12:55;101511.56;;;4.98;88.61
21988;BME280;11158;53.404;-1.510;2024-01-25T06:15:20;101510.66;;;5.00;88.98
21988;BME280;11158;53.404;-1.510;2024-01-25T06:17:45;101508.94;;;4.99;88.96
21988;BME280;11158;53.404;-1.510;2024-01-25T06:20:11;101508.03;;;4.99;88.77
21988;BME280;11158;53.404;-1.510;2024-01-25T06:22:36;101504.53;;;5.00;88.40
21988;BME280;11158;53.404;-1.510;2024-01-25T06:25:02;101497.47;;;5.03;88.84
21988;BME280;11158;53.404;-1.510;2024-01-25T06:27:29;101495.72;;;5.08;89.01
21988;BME280;11158;53.404;-1.510;2024-01-25T06:29:54;101489.53;;;5.13;88.93
21988;BME280;11158;53.404;-1.510;2024-01-25T06:32:19;101482.47;;;5.15;88.67
21988;BME280;11158;53.404;-1.510;2024-01-25T06:34:45;101478.06;;;5.20;89.05
21988;BME280;11158;53.404;-1.510;2024-01-25T06:37:10;101463.97;;;5.18;88.60
21988;BME280;11158;53.404;-1.510;2024-01-25T06:39:37;101449.00;;;5.20;88.24
21988;BME280;11158;53.404;-1.510;2024-01-25T06:42:03;101453.41;;;5.22;88.70
21988;BME280;11158;53.404;-1.510;2024-01-25T06:44:29;101451.56;;;5.40;89.15
21988;BME280;11158;53.404;-1.510;2024-01-25T06:46:54;101446.09;;;5.84;88.73
21988;BME280;11158;53.404;-1.510;2024-01-25T06:49:19;101453.06;;;6.04;88.86
21988;BME280;11158;53.404;-1.510;2024-01-25T06:51:45;101452.09;;;6.17;87.66
21988;BME280;11158;53.404;-1.510;2024-01-25T06:54:10;101445.03;;;6.19;87.32
21988;BME280;11158;53.404;-1.510;2024-01-25T06:56:35;101439.69;;;6.25;86.95
21988;BME280;11158;53.404;-1.510;2024-01-25T06:59:01;101445.91;;;6.21;88.08
21988;BME280;11158;53.404;-1.510;2024-01-25T07:01:26;101434.38;;;6.27;88.37
21988;BME280;11158;53.404;-1.510;2024-01-25T07:03:53;101445.03;;;6.22;88.17
21988;BME280;11158;53.404;-1.510;2024-01-25T07:06:18;101437.94;;;6.21;88.77
21988;BME280;11158;53.404;-1.510;2024-01-25T07:08:44;101426.50;;;6.22;89.58
21988;BME280;11158;53.404;-1.510;2024-01-25T07:11:09;101422.97;;;6.20;89.50
21988;BME280;11158;53.404;-1.510;2024-01-25T07:13:35;101431.78;;;6.18;88.93
21988;BME280;11158;53.404;-1.510;2024-01-25T07:16:00;101426.50;;;6.16;90.31
21988;BME280;11158;53.404;-1.510;2024-01-25T07:18:26;101433.59;;;6.13;89.53
21988;BME280;11158;53.404;-1.510;2024-01-25T07:20:51;101423.88;;;6.16;90.70
21988;BME280;11158;53.404;-1.510;2024-01-25T07:23:17;101430.13;;;6.06;90.35
21988;BME280;11158;53.404;-1.510;2024-01-25T07:25:42;101431.03;;;6.03;91.03
21988;BME280;11158;53.404;-1.510;2024-01-25T07:28:08;101419.59;;;5.89;91.60
21988;BME280;11158;53.404;-1.510;2024-01-25T07:30:33;101420.47;;;5.94;92.03
21988;BME280;11158;53.404;-1.510;2024-01-25T07:32:59;101422.22;;;5.94;92.17
21988;BME280;11158;53.404;-1.510;2024-01-25T07:35:24;101412.53;;;5.90;92.13
21988;BME280;11158;53.404;-1.510;2024-01-25T07:37:49;101408.19;;;5.81;91.71
21988;BME280;11158;53.404;-1.510;2024-01-25T07:40:15;101410.94;;;5.65;91.40
21988;BME280;11158;53.404;-1.510;2024-01-25T07:42:40;101411.81;;;5.66;92.00
21988;BME280;11158;53.404;-1.510;2024-01-25T07:45:06;101405.59;;;5.73;92.65
21988;BME280;11158;53.404;-1.510;2024-01-25T07:47:32;101411.75;;;5.72;91.54
21988;BME280;11158;53.404;-1.510;2024-01-25T07:49:57;101403.84;;;5.69;91.50
21988;BME280;11158;53.404;-1.510;2024-01-25T07:52:23;101408.28;;;5.64;92.52
21988;BME280;11158;53.404;-1.510;2024-01-25T07:54:48;101390.59;;;5.69;92.62
21988;BME280;11158;53.404;-1.510;2024-01-25T07:57:14;101387.13;;;5.64;93.18
21988;BME280;11158;53.404;-1.510;2024-01-25T07:59:39;101392.41;;;5.64;93.18
21988;BME280;11158;53.404;-1.510;2024-01-25T08:02:04;101383.56;;;5.68;92.86
21988;BME280;11158;53.404;-1.510;2024-01-25T08:04:30;101380.84;;;5.82;93.10
21988;BME280;11158;53.404;-1.510;2024-01-25T08:06:55;101380.84;;;5.86;93.73
21988;BME280;11158;53.404;-1.510;2024-01-25T08:09:21;101372.03;;;5.84;93.89
21988;BME280;11158;53.404;-1.510;2024-01-25T08:11:47;101367.59;;;5.85;94.02
21988;BME280;11158;53.404;-1.510;2024-01-25T08:14:12;101358.81;;;5.84;93.93
21988;BME280;11158;53.404;-1.510;2024-01-25T08:16:38;101358.72;;;6.00;93.95
21988;BME280;11158;53.404;-1.510;2024-01-25T08:19:03;101362.25;;;6.00;93.76
21988;BME280;11158;53.404;-1.510;2024-01-25T08:21:29;101359.59;;;6.00;94.10
21988;BME280;11158;53.404;-1.510;2024-01-25T08:23:55;101357.81;;;6.01;94.51
21988;BME280;11158;53.404;-1.510;2024-01-25T08:26:20;101353.31;;;6.11;94.08
21988;BME280;11158;53.404;-1.510;2024-01-25T08:28:46;101354.25;;;6.08;94.34
21988;BME280;11158;53.404;-1.510;2024-01-25T08:31:12;101355.16;;;6.07;94.18
21988;BME280;11158;53.404;-1.510;2024-01-25T08:33:39;101357.75;;;6.09;93.95
21988;BME280;11158;53.404;-1.510;2024-01-25T08:36:09;101359.47;;;6.14;94.84
21988;BME280;11158;53.404;-1.510;2024-01-25T08:38:35;101351.44;;;6.27;94.47
21988;BME280;11158;53.404;-1.510;2024-01-25T08:41:00;101354.09;;;6.27;94.61
21988;BME280;11158;53.404;-1.510;2024-01-25T08:43:26;101351.50;;;6.20;94.37
21988;BME280;11158;53.404;-1.510;2024-01-25T08:45:51;101354.97;;;6.25;94.70
21988;BME280;11158;53.404;-1.510;2024-01-25T08:48:16;101355.88;;;6.21;94.83
21988;BME280;11158;53.404;-1.510;2024-01-25T08:50:42;101353.31;;;6.12;95.13
21988;BME280;11158;53.404;-1.510;2024-01-25T08:53:08;101348.94;;;6.08;95.23
21988;BME280;11158;53.404;-1.510;2024-01-25T08:55:33;101355.03;;;6.18;94.63
21988;BME280;11158;53.404;-1.510;2024-01-25T08:57:59;101339.03;;;6.32;94.52
21988;BME280;11158;53.404;-1.510;2024-01-25T09:00:24;101339.09;;;6.27;94.04
21988;BME280;11158;53.404;-1.510;2024-01-25T09:02:49;101326.69;;;6.34;94.14
21988;BME280;11158;53.404;-1.510;2024-01-25T09:05:15;101328.47;;;6.30;94.15
21988;BME280;11158;53.404;-1.510;2024-01-25T09:07:41;101327.63;;;6.25;94.77
21988;BME280;11158;53.404;-1.510;2024-01-25T09:10:07;101326.78;;;6.23;94.89
21988;BME280;11158;53.404;-1.510;2024-01-25T09:12:34;101314.38;;;6.28;94.37
21988;BME280;11158;53.404;-1.510;2024-01-25T09:15:00;101314.31;;;6.36;94.35
21988;BME280;11158;53.404;-1.510;2024-01-25T09:17:25;101314.22;;;6.45;93.18
21988;BME280;11158;53.404;-1.510;2024-01-25T09:19:51;101311.63;;;6.37;94.51
21988;BME280;11158;53.404;-1.510;2024-01-25T09:22:19;101302.72;;;6.43;95.00
21988;BME280;11158;53.404;-1.510;2024-01-25T09:24:46;101301.78;;;6.50;95.24
21988;BME280;11158;53.404;-1.510;2024-01-25T09:27:11;101303.47;;;6.60;95.03
21988;BME280;11158;53.404;-1.510;2024-01-25T09:29:38;101290.97;;;6.72;94.63
21988;BME280;11158;53.404;-1.510;2024-01-25T09:32:05;101293.59;;;6.73;94.49
21988;BME280;11158;53.404;-1.510;2024-01-25T09:34:31;101283.81;;;6.78;94.65
21988;BME280;11158;53.404;-1.510;2024-01-25T09:36:56;101287.31;;;6.83;94.95
21988;BME280;11158;53.404;-1.510;2024-01-25T09:39:22;101289.94;;;6.83;94.91
21988;BME280;11158;53.404;-1.510;2024-01-25T09:41:48;101283.72;;;6.86;94.55
21988;BME280;11158;53.404;-1.510;2024-01-25T09:44:13;101277.44;;;6.95;94.73
21988;BME280;11158;53.404;-1.510;2024-01-25T09:46:39;101287.09;;;6.99;94.91
21988;BME280;11158;53.404;-1.510;2024-01-25T09:49:05;101288.06;;;6.95;94.98
21988;BME280;11158;53.404;-1.510;2024-01-25T09:51:36;101297.69;;;7.00;94.68
21988;BME280;11158;53.404;-1.510;2024-01-25T09:54:04;101297.63;;;7.03;94.73
21988;BME280;11158;53.404;-1.510;2024-01-25T09:56:31;101274.69;;;7.02;94.73
21988;BME280;11158;53.404;-1.510;2024-01-25T09:58:58;101276.47;;;7.02;95.14
21988;BME280;11158;53.404;-1.510;2024-01-25T10:01:23;101280.00;;;7.02;95.07
21988;BME280;11158;53.404;-1.510;2024-01-25T10:03:49;101276.38;;;7.08;95.10
21988;BME280;11158;53.404;-1.510;2024-01-25T10:06:15;101271.97;;;7.09;95.06
21988;BME280;11158;53.404;-1.510;2024-01-25T10:08:41;101271.09;;;7.08;94.57
21988;BME280;11158;53.404;-1.510;2024-01-25T10:11:07;101267.56;;;7.08;95.13
21988;BME280;11158;53.404;-1.510;2024-01-25T10:13:47;101274.59;;;7.09;95.40
21988;BME280;11158;53.404;-1.510;2024-01-25T10:16:17;101282.44;;;7.19;95.18
21988;BME280;11158;53.404;-1.510;2024-01-25T10:18:44;101275.22;;;7.29;94.51
21988;BME280;11158;53.404;-1.510;2024-01-25T10:21:11;101274.25;;;7.36;94.20
21988;BME280;11158;53.404;-1.510;2024-01-25T10:23:38;101275.09;;;7.38;94.41
21988;BME280;11158;53.404;-1.510;2024-01-25T10:26:03;101280.41;;;7.37;93.88
21988;BME280;11158;53.404;-1.510;2024-01-25T10:28:29;101276.81;;;7.41;94.16
21988;BME280;11158;53.404;-1.510;2024-01-25T10:30:57;101277.66;;;7.43;94.67
21988;BME280;11158;53.404;-1.510;2024-01-25T10:33:24;101266.94;;;7.51;94.14
21988;BME280;11158;53.404;-1.510;2024-01-25T10:35:50;101266.81;;;7.58;93.96
21988;BME280;11158;53.404;-1.510;2024-01-25T10:38:17;101261.53;;;7.57;93.95
21988;BME280;11158;53.404;-1.510;2024-01-25T10:40:43;101257.16;;;7.56;93.90
21988;BME280;11158;53.404;-1.510;2024-01-25T10:43:09;101237.59;;;7.61;93.42
21988;BME280;11158;53.404;-1.510;2024-01-25T10:45:35;101227.94;;;7.59;93.78
21988;BME280;11158;53.404;-1.510;2024-01-25T10:48:02;101223.41;;;7.62;93.71
21988;BME280;11158;53.404;-1.510;2024-01-25T10:50:27;101215.44;;;7.66;93.61
21988;BME280;11158;53.404;-1.510;2024-01-25T10:52:53;101218.88;;;7.72;94.16
21988;BME280;11158;53.404;-1.510;2024-01-25T10:55:19;101221.44;;;7.77;93.53
21988;BME280;11158;53.404;-1.510;2024-01-25T10:57:46;101216.84;;;7.85;93.52
21988;BME280;11158;53.404;-1.510;2024-01-25T11:00:13;101207.03;;;7.90;92.87
21988;BME280;11158;53.404;-1.510;2024-01-25T11:02:44;101212.22;;;7.98;93.05
21988;BME280;11158;53.404;-1.510;2024-01-25T11:05:11;101207.75;;;8.00;93.42
21988;BME280;11158;53.404;-1.510;2024-01-25T11:07:50;101205.06;;;8.01;92.71
21988;BME280;11158;53.404;-1.510;2024-01-25T11:10:20;101199.75;;;8.03;92.60
21988;BME280;11158;53.404;-1.510;2024-01-25T11:12:57;101200.59;;;8.05;93.00
21988;BME280;11158;53.404;-1.510;2024-01-25T11:15:29;101190.78;;;8.09;92.77
21988;BME280;11158;53.404;-1.510;2024-01-25T11:17:55;101188.03;;;8.13;92.69
21988;BME280;11158;53.404;-1.510;2024-01-25T11:20:25;101188.84;;;8.17;92.66
21988;BME280;11158;53.404;-1.510;2024-01-25T11:22:58;101185.31;;;8.18;92.15
21988;BME280;11158;53.404;-1.510;2024-01-25T11:25:27;101185.22;;;8.21;92.04
21988;BME280;11158;53.404;-1.510;2024-01-25T11:27:53;101197.69;;;8.17;92.41
21988;BME280;11158;53.404;-1.510;2024-01-25T11:30:19;101188.84;;;8.18;92.55
21988;BME280;11158;53.404;-1.510;2024-01-25T11:32:48;101188.81;;;8.20;92.13
21988;BME280;11158;53.404;-1.510;2024-01-25T11:35:14;101172.78;;;8.23;92.36
21988;BME280;11158;53.404;-1.510;2024-01-25T11:37:45;101180.72;;;8.26;92.28
21988;BME280;11158;53.404;-1.510;2024-01-25T11:40:11;101172.53;;;8.37;91.81
21988;BME280;11158;53.404;-1.510;2024-01-25T11:42:38;101169.81;;;8.40;91.93
21988;BME280;11158;53.404;-1.510;2024-01-25T11:45:09;101161.59;;;8.54;91.26
21988;BME280;11158;53.404;-1.510;2024-01-25T11:47:36;101149.91;;;8.63;91.02
21988;BME280;11158;53.404;-1.510;2024-01-25T11:50:02;101151.47;;;8.73;91.00
21988;BME280;11158;53.404;-1.510;2024-01-25T11:52:28;101141.38;;;8.87;90.36
21988;BME280;11158;53.404;-1.510;2024-01-25T11:54:54;101147.28;;;9.00;89.51
21988;BME280;11158;53.404;-1.510;2024-01-25T11:57:19;101133.53;;;9.20;89.18
21988;BME280;11158;53.404;-1.510;2024-01-25T11:59:45;101135.84;;;9.34;89.10
21988;BME280;11158;53.404;-1.510;2024-01-25T12:02:15;101132.38;;;9.66;87.60
21988;BME280;11158;53.404;-1.510;2024-01-25T12:04:40;101122.97;;;9.53;87.92
21988;BME280;11158;53.404;-1.510;2024-01-25T12:07:06;101111.56;;;9.48;87.93
21988;BME280;11158;53.404;-1.510;2024-01-25T12:09:32;101100.88;;;9.49;87.96
21988;BME280;11158;53.404;-1.510;2024-01-25T12:12:00;101104.72;;;9.37;88.22
21988;BME280;11158;53.404;-1.510;2024-01-25T12:14:27;101106.19;;;9.49;87.97
21988;BME280;11158;53.404;-1.510;2024-01-25T12:16:55;101107.06;;;9.50;87.88
21988;BME280;11158;53.404;-1.510;2024-01-25T12:19:21;101096.63;;;9.42;88.30
21988;BME280;11158;53.404;-1.510;2024-01-25T12:21:47;101075.59;;;9.31;89.00
21988;BME280;11158;53.404;-1.510;2024-01-25T12:24:12;101083.25;;;9.45;88.84
21988;BME280;11158;53.404;-1.510;2024-01-25T12:26:37;101069.00;;;9.46;88.79
21988;BME280;11158;53.404;-1.510;2024-01-25T12:29:03;101062.59;;;9.55;89.03
21988;BME280;11158;53.404;-1.510;2024-01-25T12:31:30;101059.78;;;9.60;89.17
21988;BME280;11158;53.404;-1.510;2024-01-25T12:33:55;101073.94;;;9.62;88.83
21988;BME280;11158;53.404;-1.510;2024-01-25T12:36:21;101063.28;;;9.62;88.55
21988;BME280;11158;53.404;-1.510;2024-01-25T12:38:46;101060.47;;;9.68;88.35
21988;BME280;11158;53.404;-1.510;2024-01-25T12:41:14;101054.31;;;9.66;88.33
21988;BME280;11158;53.404;-1.510;2024-01-25T12:43:39;101064.88;;;9.69;88.24